createdAt,value
2023-02-19T00:01:33.661Z,12.32
2023-02-19T00:04:02.411Z,12.31
2023-02-19T00:06:30.733Z,12.31
2023-02-19T00:08:57.539Z,12.30
2023-02-19T00:11:26.698Z,12.29
2023-02-19T00:13:55.552Z,12.27
2023-02-19T00:16:30.566Z,12.24
2023-02-19T00:18:59.244Z,12.18
2023-02-19T00:21:26.921Z,12.15
2023-02-19T00:23:56.606Z,12.12
2023-02-19T00:26:24.004Z,12.11
2023-02-19T00:28:52.116Z,12.13
2023-02-19T00:31:23.352Z,12.17
2023-02-19T00:33:53.637Z,12.19
2023-02-19T00:36:20.789Z,12.19
2023-02-19T00:38:47.930Z,12.20
2023-02-19T00:41:21.247Z,12.20
2023-02-19T00:43:59.169Z,12.23
2023-02-19T00:46:28.164Z,12.25
2023-02-19T00:48:58.494Z,12.25
2023-02-19T00:51:27.653Z,12.23
2023-02-19T00:53:54.440Z,12.20
2023-02-19T00:56:21.658Z,12.20
2023-02-19T00:58:48.963Z,12.20
2023-02-19T01:01:16.302Z,12.13
2023-02-19T01:03:43.229Z,12.04
2023-02-19T01:06:11.483Z,12.02
2023-02-19T01:08:38.135Z,11.96
2023-02-19T01:11:05.950Z,11.89
2023-02-19T01:13:33.677Z,11.86
2023-02-19T01:16:14.976Z,11.87
2023-02-19T01:18:41.970Z,11.87
2023-02-19T01:21:12.916Z,11.87
2023-02-19T01:23:40.196Z,11.86
2023-02-19T01:26:08.560Z,11.87
2023-02-19T01:28:35.610Z,11.84
2023-02-19T01:31:04.142Z,11.83
2023-02-19T01:33:30.818Z,11.82
2023-02-19T01:35:57.759Z,11.81
2023-02-19T01:38:24.201Z,11.78
2023-02-19T01:41:06.511Z,11.78
2023-02-19T01:43:34.818Z,11.80
2023-02-19T01:46:01.546Z,11.82
2023-02-19T01:48:37.520Z,11.83
2023-02-19T01:51:10.851Z,11.83
2023-02-19T01:53:41.711Z,11.84
2023-02-19T01:56:12.295Z,11.85
2023-02-19T01:58:39.555Z,11.86
2023-02-19T02:01:08.819Z,11.86
2023-02-19T02:03:41.935Z,11.86
2023-02-19T02:06:15.817Z,11.81
2023-02-19T02:09:01.041Z,11.78
2023-02-19T02:11:27.826Z,11.77
2023-02-19T02:13:54.870Z,11.74
2023-02-19T02:16:28.393Z,11.68
2023-02-19T02:19:51.193Z,11.50
2023-02-19T02:22:35.650Z,11.45
2023-02-19T02:25:23.134Z,11.44
2023-02-19T02:27:56.250Z,11.46
2023-02-19T02:30:37.749Z,11.43
2023-02-19T02:33:17.404Z,11.40
2023-02-19T02:35:58.049Z,11.39
2023-02-19T02:38:30.692Z,11.39
2023-02-19T02:40:58.616Z,11.33
2023-02-19T02:43:25.808Z,11.28
2023-02-19T02:45:52.322Z,11.26
2023-02-19T02:48:26.894Z,11.29
2023-02-19T02:51:03.960Z,11.26
2023-02-19T02:54:07.387Z,11.28
2023-02-19T02:56:35.019Z,11.22
2023-02-19T02:59:03.985Z,11.15
2023-02-19T03:01:56.409Z,11.04
2023-02-19T03:04:35.206Z,10.97
2023-02-19T03:07:08.606Z,10.94
2023-02-19T03:09:40.525Z,10.91
2023-02-19T03:12:31.578Z,10.89
2023-02-19T03:15:21.968Z,10.89
2023-02-19T03:18:11.605Z,10.90
2023-02-19T03:20:42.008Z,10.92
2023-02-19T03:23:10.978Z,10.90
2023-02-19T03:25:58.056Z,10.95
2023-02-19T03:28:49.733Z,10.98
2023-02-19T03:31:21.034Z,10.99
2023-02-19T03:33:54.436Z,11.02
2023-02-19T03:36:28.245Z,11.04
2023-02-19T03:39:06.481Z,11.06
2023-02-19T03:41:59.437Z,11.04
2023-02-19T03:44:42.308Z,11.04
2023-02-19T03:47:28.650Z,10.98
2023-02-19T03:50:02.184Z,10.94
2023-02-19T03:52:31.441Z,10.92
2023-02-19T03:55:08.004Z,10.93
2023-02-19T03:57:43.072Z,10.90
2023-02-19T04:00:18.211Z,10.91
2023-02-19T04:02:50.348Z,10.90
2023-02-19T04:05:18.585Z,10.91
2023-02-19T04:07:48.801Z,10.92
2023-02-19T04:10:17.009Z,10.91
2023-02-19T04:12:50.274Z,10.93
2023-02-19T04:15:22.877Z,10.96
2023-02-19T04:17:57.283Z,10.97
2023-02-19T04:20:27.293Z,10.99
2023-02-19T04:22:54.037Z,11.01
2023-02-19T04:25:21.694Z,11.04
2023-02-19T04:27:48.489Z,11.03
2023-02-19T04:30:15.317Z,11.06
2023-02-19T04:32:41.845Z,11.10
2023-02-19T04:35:08.486Z,11.12
2023-02-19T04:37:34.920Z,11.16
2023-02-19T04:40:01.553Z,11.18
2023-02-19T04:42:27.998Z,11.21
2023-02-19T04:44:54.429Z,11.23
2023-02-19T04:47:20.841Z,11.27
2023-02-19T04:49:47.247Z,11.24
2023-02-19T04:52:13.691Z,11.25
2023-02-19T04:54:40.111Z,11.28
2023-02-19T04:57:06.514Z,11.27
2023-02-19T04:59:33.093Z,11.28
2023-02-19T05:01:59.504Z,11.28
2023-02-19T05:04:26.032Z,11.27
2023-02-19T05:06:52.527Z,11.27
2023-02-19T05:09:19.041Z,11.24
2023-02-19T05:11:45.469Z,11.28
2023-02-19T05:14:11.891Z,11.29
2023-02-19T05:16:38.265Z,11.31
2023-02-19T05:19:04.670Z,11.26
2023-02-19T05:21:31.107Z,11.24
2023-02-19T05:23:57.499Z,11.26
2023-02-19T05:26:24.312Z,11.28
2023-02-19T05:28:53.141Z,11.25
2023-02-19T05:31:20.755Z,11.26
2023-02-19T05:33:51.214Z,11.26
2023-02-19T05:36:19.661Z,11.25
2023-02-19T05:38:46.617Z,11.26
2023-02-19T05:41:15.966Z,11.30
2023-02-19T05:43:44.837Z,11.28
2023-02-19T05:46:14.350Z,11.29
2023-02-19T05:48:41.145Z,11.28
2023-02-19T05:51:13.984Z,11.30
2023-02-19T05:53:41.023Z,11.31
2023-02-19T05:56:38.889Z,11.30
2023-02-19T05:59:20.308Z,11.30
2023-02-19T06:01:48.238Z,11.31
2023-02-19T06:04:15.441Z,11.32
2023-02-19T06:06:42.407Z,11.33
2023-02-19T06:09:09.753Z,11.33
2023-02-19T06:11:36.534Z,11.31
2023-02-19T06:14:03.147Z,11.29
2023-02-19T06:16:29.667Z,11.23
2023-02-19T06:18:56.219Z,11.23
2023-02-19T06:21:22.854Z,11.23
2023-02-19T06:23:49.311Z,11.26
2023-02-19T06:26:19.700Z,11.23
2023-02-19T06:28:47.918Z,11.23
2023-02-19T06:31:14.814Z,11.19
2023-02-19T06:33:41.941Z,11.18
2023-02-19T06:36:12.545Z,11.19
2023-02-19T06:38:39.465Z,11.19
2023-02-19T06:41:07.099Z,11.21
2023-02-19T06:43:34.517Z,11.22
2023-02-19T06:46:02.372Z,11.24
2023-02-19T06:48:29.825Z,11.19
2023-02-19T06:50:56.726Z,11.15
2023-02-19T06:53:32.236Z,11.13
2023-02-19T06:56:07.538Z,11.14
2023-02-19T06:58:34.656Z,11.14
2023-02-19T07:01:01.397Z,11.15
2023-02-19T07:03:28.003Z,11.15
2023-02-19T07:05:54.586Z,11.16
2023-02-19T07:08:21.097Z,11.17
2023-02-19T07:10:57.639Z,11.18
2023-02-19T07:13:26.641Z,11.14
2023-02-19T07:15:59.862Z,11.14
2023-02-19T07:18:26.371Z,11.14
2023-02-19T07:20:52.799Z,11.15
2023-02-19T07:23:19.249Z,11.14
2023-02-19T07:25:45.845Z,11.17
2023-02-19T07:28:12.342Z,11.18
2023-02-19T07:30:38.723Z,11.17
2023-02-19T07:33:05.113Z,11.20
2023-02-19T07:35:31.506Z,11.26
2023-02-19T07:37:57.922Z,11.29
2023-02-19T07:40:24.316Z,11.32
2023-02-19T07:42:50.684Z,11.36
2023-02-19T07:45:17.229Z,11.40
2023-02-19T07:47:44.009Z,11.36
2023-02-19T07:50:13.018Z,11.37
2023-02-19T07:52:40.292Z,11.39
2023-02-19T07:55:07.153Z,11.42
2023-02-19T07:57:33.560Z,11.41
2023-02-19T08:00:00.168Z,11.38
2023-02-19T08:02:45.330Z,11.40
2023-02-19T08:05:11.731Z,11.42
2023-02-19T08:07:38.189Z,11.48
2023-02-19T08:10:24.030Z,11.54
2023-02-19T08:13:18.984Z,11.58
2023-02-19T08:15:46.426Z,11.59
2023-02-19T08:18:14.034Z,11.61
2023-02-19T08:20:40.716Z,11.60
2023-02-19T08:23:07.592Z,11.56
2023-02-19T08:25:34.418Z,11.55
2023-02-19T08:28:01.340Z,11.54
2023-02-19T08:30:28.988Z,11.58
2023-02-19T08:32:55.890Z,11.61
2023-02-19T08:35:22.401Z,11.59
2023-02-19T08:37:48.849Z,11.61
2023-02-19T08:40:15.351Z,11.57
2023-02-19T08:42:41.786Z,11.61
2023-02-19T08:45:08.764Z,11.56
2023-02-19T08:47:36.470Z,11.58
2023-02-19T08:50:04.941Z,11.58
2023-02-19T08:52:31.685Z,11.59
2023-02-19T08:54:58.277Z,11.57
2023-02-19T08:57:25.128Z,11.53
2023-02-19T08:59:51.538Z,11.56
2023-02-19T09:02:18.100Z,11.55
2023-02-19T09:04:44.529Z,11.59
2023-02-19T09:07:12.588Z,11.57
2023-02-19T09:09:39.762Z,11.61
2023-02-19T09:12:08.506Z,11.67
2023-02-19T09:14:35.493Z,11.68
2023-02-19T09:17:03.551Z,11.71
2023-02-19T09:19:31.064Z,11.74
2023-02-19T09:21:57.563Z,11.74
2023-02-19T09:24:24.511Z,11.73
2023-02-19T09:26:52.035Z,11.76
2023-02-19T09:29:19.338Z,11.75
2023-02-19T09:31:46.384Z,11.74
2023-02-19T09:34:13.099Z,11.80
2023-02-19T09:36:40.237Z,11.85
2023-02-19T09:39:08.374Z,11.91
2023-02-19T09:41:38.540Z,11.93
2023-02-19T09:44:09.890Z,11.93
2023-02-19T09:46:46.112Z,11.98
2023-02-19T09:49:19.443Z,12.05
2023-02-19T09:51:51.569Z,12.11
2023-02-19T09:54:23.774Z,12.16
2023-02-19T09:56:50.981Z,12.19
2023-02-19T09:59:40.135Z,12.13
2023-02-19T10:02:25.768Z,12.11
2023-02-19T10:04:52.918Z,12.14
2023-02-19T10:07:23.635Z,12.16
2023-02-19T10:09:58.588Z,12.13
2023-02-19T10:12:28.816Z,12.16
2023-02-19T10:15:01.651Z,12.13
2023-02-19T10:17:34.470Z,12.14
2023-02-19T10:20:04.215Z,12.15
2023-02-19T10:22:33.869Z,12.20
2023-02-19T10:25:00.286Z,12.25
2023-02-19T10:27:30.840Z,12.18
2023-02-19T10:29:58.774Z,12.20
2023-02-19T10:32:27.387Z,12.20
2023-02-19T10:35:10.908Z,12.29
2023-02-19T10:37:44.848Z,12.29
2023-02-19T10:40:24.534Z,12.27
2023-02-19T10:42:55.882Z,12.33
2023-02-19T10:45:36.141Z,12.40
2023-02-19T10:48:03.572Z,12.41
2023-02-19T10:50:32.961Z,12.46
2023-02-19T10:53:01.155Z,12.46
2023-02-19T10:55:31.322Z,12.50
2023-02-19T10:57:58.332Z,12.50
2023-02-19T11:00:30.488Z,12.54
2023-02-19T11:03:15.167Z,12.52
2023-02-19T11:05:51.189Z,12.47
2023-02-19T11:08:22.827Z,12.48
2023-02-19T11:10:50.122Z,12.47
2023-02-19T11:13:26.645Z,12.47
2023-02-19T11:15:55.241Z,12.39
2023-02-19T11:18:25.484Z,12.35
2023-02-19T11:21:01.567Z,12.33
2023-02-19T11:23:44.895Z,12.32
2023-02-19T11:26:24.202Z,12.32
2023-02-19T11:28:58.514Z,12.28
2023-02-19T11:31:27.803Z,12.23
2023-02-19T11:33:59.772Z,12.26
2023-02-19T11:36:32.183Z,12.28
2023-02-19T11:39:03.127Z,12.19
2023-02-19T11:41:41.826Z,12.14
2023-02-19T11:44:17.476Z,12.06
2023-02-19T11:47:25.034Z,11.96
2023-02-19T11:50:00.407Z,11.85
2023-02-19T11:52:46.371Z,11.79
2023-02-19T11:55:18.841Z,11.67
2023-02-19T11:57:58.929Z,11.64
2023-02-19T12:00:27.897Z,11.61
2023-02-19T12:03:17.221Z,11.61
2023-02-19T12:05:53.522Z,11.61
2023-02-19T12:08:50.305Z,11.47
2023-02-19T12:11:37.863Z,11.41
2023-02-19T12:14:07.129Z,11.36
2023-02-19T12:16:51.134Z,11.35
2023-02-19T12:19:25.597Z,11.34
2023-02-19T12:22:19.104Z,11.34
2023-02-19T12:25:25.491Z,11.35
2023-02-19T12:28:08.463Z,11.46
2023-02-19T12:30:56.323Z,11.64
2023-02-19T12:33:44.678Z,11.80
2023-02-19T12:36:26.174Z,11.96
2023-02-19T12:39:14.651Z,12.13
2023-02-19T12:41:59.678Z,12.43
2023-02-19T12:44:48.674Z,12.97
2023-02-19T12:47:27.659Z,13.37
2023-02-19T12:50:05.789Z,13.46
2023-02-19T12:52:40.903Z,13.46
2023-02-19T12:55:29.456Z,13.67
2023-02-19T12:57:59.042Z,13.64
2023-02-19T13:00:49.430Z,13.57
2023-02-19T13:03:22.626Z,13.43
2023-02-19T13:06:03.663Z,13.35
2023-02-19T13:08:57.862Z,13.27
2023-02-19T13:11:38.524Z,13.19
2023-02-19T13:14:24.201Z,13.03
2023-02-19T13:16:55.931Z,12.88
2023-02-19T13:19:22.344Z,12.54
2023-02-19T13:22:26.186Z,12.43
2023-02-19T13:24:55.116Z,12.19
2023-02-19T13:30:35.633Z,11.98
2023-02-19T13:33:33.561Z,12.03
2023-02-19T13:36:14.454Z,12.10
2023-02-19T13:38:47.813Z,12.18
2023-02-19T13:41:26.771Z,12.22
2023-02-19T13:44:00.440Z,12.38
2023-02-19T13:46:41.590Z,12.39
2023-02-19T13:49:37.314Z,12.38
2023-02-19T13:52:29.865Z,12.25
2023-02-19T13:55:35.361Z,12.25
2023-02-19T13:58:32.726Z,12.21
2023-02-19T14:01:06.894Z,12.15
2023-02-19T14:04:07.675Z,12.19
2023-02-19T14:07:05.572Z,12.23
2023-02-19T14:09:41.009Z,12.35
2023-02-19T14:12:07.339Z,12.49
2023-02-19T14:14:54.489Z,12.63
2023-02-19T14:17:35.850Z,12.74
2023-02-19T14:20:17.569Z,12.87
2023-02-19T14:22:47.345Z,12.92
2023-02-19T14:25:31.973Z,12.98
2023-02-19T14:28:10.600Z,13.00
2023-02-19T14:30:54.337Z,13.01
2023-02-19T14:33:27.223Z,13.00
2023-02-19T14:35:59.988Z,12.92
2023-02-19T14:38:39.271Z,12.79
2023-02-19T14:41:06.698Z,12.76
2023-02-19T14:43:35.479Z,12.71
2023-02-19T14:46:15.111Z,12.64
2023-02-19T14:48:48.012Z,12.55
2023-02-19T14:51:29.620Z,12.49
2023-02-19T14:53:57.773Z,12.40
2023-02-19T14:56:31.903Z,12.34
2023-02-19T14:59:07.262Z,12.26
2023-02-19T15:01:33.732Z,12.09
2023-02-19T15:04:00.803Z,11.99
2023-02-19T15:06:28.707Z,11.94
2023-02-19T15:09:00.053Z,11.92
2023-02-19T15:11:29.643Z,11.82
2023-02-19T15:13:59.204Z,11.79
2023-02-19T15:16:28.771Z,11.79
2023-02-19T15:18:57.974Z,11.80
2023-02-19T15:21:27.139Z,11.84
2023-02-19T15:23:56.058Z,11.83
2023-02-19T15:26:31.726Z,11.85
2023-02-19T15:29:05.014Z,11.83
2023-02-19T15:31:31.504Z,11.80
2023-02-19T15:33:58.175Z,11.80
2023-02-19T15:36:33.891Z,11.82
2023-02-19T15:39:02.570Z,11.80
2023-02-19T15:41:34.447Z,11.77
2023-02-19T15:44:34.653Z,11.72
2023-02-19T15:47:08.592Z,11.73
2023-02-19T15:49:48.899Z,11.67
2023-02-19T15:52:31.080Z,11.65
2023-02-19T15:55:23.861Z,11.61
2023-02-19T15:58:06.166Z,11.63
2023-02-19T16:00:41.438Z,11.61
2023-02-19T16:03:17.054Z,11.57
2023-02-19T16:05:43.615Z,11.62
2023-02-19T16:08:13.089Z,11.61
2023-02-19T16:10:39.505Z,11.62
2023-02-19T16:13:08.180Z,11.59
2023-02-19T16:15:35.533Z,11.53
2023-02-19T16:18:02.180Z,11.51
2023-02-19T16:20:35.010Z,11.50
2023-02-19T16:23:13.639Z,11.53
2023-02-19T16:25:44.119Z,11.53
2023-02-19T16:28:13.843Z,11.54
2023-02-19T16:30:41.463Z,11.54
2023-02-19T16:33:48.205Z,11.52
2023-02-19T16:36:33.070Z,11.48
2023-02-19T16:39:09.050Z,11.49
2023-02-19T16:41:47.689Z,11.46
2023-02-19T16:44:27.431Z,11.43
2023-02-19T16:47:07.111Z,11.42
2023-02-19T16:49:33.666Z,11.41
2023-02-19T16:52:04.078Z,11.39
2023-02-19T16:54:30.951Z,11.32
2023-02-19T16:56:57.319Z,11.28
2023-02-19T16:59:23.703Z,11.28
2023-02-19T17:01:50.226Z,11.29
2023-02-19T17:04:16.912Z,11.26
2023-02-19T17:06:44.395Z,11.22
2023-02-19T17:09:10.943Z,11.19
2023-02-19T17:11:37.371Z,11.17
2023-02-19T17:14:04.095Z,11.14
2023-02-19T17:16:40.380Z,11.13
2023-02-19T17:19:18.951Z,11.11
2023-02-19T17:21:46.704Z,11.07
2023-02-19T17:24:13.670Z,11.06
2023-02-19T17:26:40.317Z,11.05
2023-02-19T17:29:09.378Z,11.03
2023-02-19T17:31:36.112Z,11.04
2023-02-19T17:34:02.604Z,11.04
2023-02-19T17:36:30.874Z,11.04
2023-02-19T17:38:59.164Z,11.02
2023-02-19T17:41:26.070Z,11.00
2023-02-19T17:43:53.554Z,10.94
2023-02-19T17:46:25.785Z,10.92
2023-02-19T17:48:53.497Z,10.88
2023-02-19T17:51:20.572Z,10.78
2023-02-19T17:53:47.242Z,10.77
2023-02-19T17:56:26.107Z,10.71
2023-02-19T17:58:54.751Z,10.66
2023-02-19T18:01:21.684Z,10.59
2023-02-19T18:03:48.086Z,10.54
2023-02-19T18:06:14.560Z,10.48
2023-02-19T18:08:49.964Z,10.44
2023-02-19T18:11:16.664Z,10.42
2023-02-19T18:13:43.183Z,10.42
2023-02-19T18:16:09.943Z,10.44
2023-02-19T18:18:36.994Z,10.46
2023-02-19T18:21:04.592Z,10.44
2023-02-19T18:23:31.013Z,10.44
2023-02-19T18:25:57.425Z,10.47
2023-02-19T18:28:23.944Z,10.47
2023-02-19T18:30:50.541Z,10.48
2023-02-19T18:33:17.099Z,10.49
2023-02-19T18:35:49.218Z,10.48
2023-02-19T18:38:16.047Z,10.47
2023-02-19T18:40:42.573Z,10.44
2023-02-19T18:43:09.016Z,10.36
2023-02-19T18:45:37.243Z,10.29
2023-02-19T18:48:04.917Z,10.21
2023-02-19T18:50:33.290Z,10.18
2023-02-19T18:52:59.697Z,10.18
2023-02-19T18:55:26.101Z,10.14
2023-02-19T18:57:52.555Z,10.09
2023-02-19T19:00:23.660Z,10.07
2023-02-19T19:02:51.445Z,10.05
2023-02-19T19:05:22.709Z,10.10
2023-02-19T19:07:54.060Z,10.10
2023-02-19T19:10:21.475Z,10.11
2023-02-19T19:12:48.416Z,10.12
2023-02-19T19:15:18.261Z,10.12
2023-02-19T19:17:45.746Z,10.07
2023-02-19T19:20:12.629Z,10.08
2023-02-19T19:22:39.220Z,10.10
2023-02-19T19:25:06.263Z,10.11
2023-02-19T19:27:32.657Z,10.13
2023-02-19T19:29:59.030Z,10.15
2023-02-19T19:32:25.468Z,10.16
2023-02-19T19:34:51.965Z,10.14
2023-02-19T19:37:18.422Z,10.16
2023-02-19T19:39:44.799Z,10.15
2023-02-19T19:42:11.301Z,10.12
2023-02-19T19:44:37.867Z,10.11
2023-02-19T19:47:04.374Z,10.02
2023-02-19T19:49:30.740Z,10.03
2023-02-19T19:52:01.145Z,10.01
2023-02-19T19:54:28.497Z,10.04
2023-02-19T19:56:55.272Z,10.02
2023-02-19T19:59:23.116Z,9.99
2023-02-19T20:01:51.544Z,10.02
2023-02-19T20:04:22.772Z,9.97
2023-02-19T20:06:49.485Z,9.99
2023-02-19T20:09:17.712Z,9.97
2023-02-19T20:11:49.732Z,9.98
2023-02-19T20:14:17.677Z,10.00
2023-02-19T20:16:44.870Z,10.00
2023-02-19T20:19:11.614Z,10.00
2023-02-19T20:21:38.225Z,9.99
2023-02-19T20:24:05.160Z,9.99
2023-02-19T20:26:32.000Z,10.00
2023-02-19T20:28:58.765Z,10.01
2023-02-19T20:31:28.530Z,9.99
2023-02-19T20:33:55.018Z,9.99
2023-02-19T20:36:21.570Z,10.01
2023-02-19T20:38:49.512Z,10.03
2023-02-19T20:41:16.018Z,10.00
2023-02-19T20:43:42.470Z,10.00
2023-02-19T20:46:08.970Z,9.99
2023-02-19T20:48:35.449Z,9.98
2023-02-19T20:51:02.004Z,9.95
2023-02-19T20:53:30.148Z,9.95
2023-02-19T20:55:56.703Z,9.92
2023-02-19T20:58:24.640Z,9.90
2023-02-19T21:00:53.492Z,9.89
2023-02-19T21:03:20.516Z,9.87
2023-02-19T21:05:47.102Z,9.88
2023-02-19T21:08:14.968Z,9.91
2023-02-19T21:10:41.345Z,9.93
2023-02-19T21:13:07.754Z,9.91
2023-02-19T21:15:34.333Z,9.93
2023-02-19T21:18:00.745Z,9.90
2023-02-19T21:20:27.316Z,9.91
2023-02-19T21:22:53.738Z,9.90
2023-02-19T21:25:20.143Z,9.91
2023-02-19T21:27:46.581Z,9.90
2023-02-19T21:30:13.316Z,9.89
2023-02-19T21:32:39.765Z,9.91
2023-02-19T21:35:06.516Z,9.90
2023-02-19T21:37:32.841Z,9.89
2023-02-19T21:40:00.459Z,9.90
2023-02-19T21:42:27.060Z,9.89
2023-02-19T21:44:53.482Z,9.89
2023-02-19T21:47:19.867Z,9.90
2023-02-19T21:49:46.338Z,9.86
2023-02-19T21:52:12.790Z,9.88
2023-02-19T21:54:39.170Z,9.88
2023-02-19T21:57:05.657Z,9.88
2023-02-19T21:59:32.068Z,9.85
2023-02-19T22:01:58.533Z,9.84
2023-02-19T22:04:25.034Z,9.84
2023-02-19T22:06:55.157Z,9.83
2023-02-19T22:09:21.602Z,9.79
2023-02-19T22:11:48.035Z,9.78
2023-02-19T22:14:14.584Z,9.76
2023-02-19T22:16:41.095Z,9.74
2023-02-19T22:19:07.531Z,9.73
2023-02-19T22:21:34.088Z,9.70
2023-02-19T22:24:02.598Z,9.68
2023-02-19T22:26:32.374Z,9.66
2023-02-19T22:28:59.568Z,9.63
2023-02-19T22:31:27.587Z,9.59
2023-02-19T22:33:56.149Z,9.57
2023-02-19T22:36:25.298Z,9.50
2023-02-19T22:38:52.649Z,9.45
2023-02-19T22:41:20.283Z,9.43
2023-02-19T22:43:47.050Z,9.41
2023-02-19T22:46:19.130Z,9.40
2023-02-19T22:48:45.741Z,9.38
2023-02-19T22:51:14.218Z,9.36
2023-02-19T22:53:48.985Z,9.35
2023-02-19T22:56:17.442Z,9.33
2023-02-19T22:58:44.631Z,9.31
2023-02-19T23:01:13.515Z,9.28
2023-02-19T23:03:51.452Z,9.24
2023-02-19T23:06:25.122Z,9.22
2023-02-19T23:08:52.544Z,9.17
2023-02-19T23:11:24.343Z,9.12
2023-02-19T23:13:50.910Z,9.07
2023-02-19T23:16:18.153Z,9.02
2023-02-19T23:18:44.721Z,8.94
2023-02-19T23:21:11.378Z,8.84
2023-02-19T23:23:37.860Z,8.74
2023-02-19T23:26:04.613Z,8.68
2023-02-19T23:28:31.111Z,8.63
2023-02-19T23:30:57.705Z,8.57
2023-02-19T23:33:24.330Z,8.50
2023-02-19T23:35:50.709Z,8.44
2023-02-19T23:38:17.262Z,8.36
2023-02-19T23:40:43.784Z,8.29
2023-02-19T23:43:10.181Z,8.21
2023-02-19T23:45:36.654Z,8.13
2023-02-19T23:48:03.726Z,8.06
2023-02-19T23:50:30.291Z,8.01
2023-02-19T23:52:59.143Z,7.93
2023-02-19T23:55:26.672Z,7.84
2023-02-19T23:57:53.525Z,7.77
